createdAt,value
2019-04-05T00:01:17.788Z,6.10
2019-04-05T00:03:59.505Z,6.20
2019-04-05T00:06:43.905Z,6.20
2019-04-05T00:09:24.767Z,6.20
2019-04-05T00:12:06.788Z,6.20
2019-04-05T00:14:36.820Z,6.20
2019-04-05T00:17:07.426Z,6.10
2019-04-05T00:19:37.751Z,6.10
2019-04-05T00:22:07.960Z,6.00
2019-04-05T00:24:37.600Z,6.10
2019-04-05T00:27:09.936Z,6.10
2019-04-05T00:29:39.767Z,6.20
2019-04-05T00:32:28.503Z,6.20
2019-04-05T00:35:17.409Z,6.20
2019-04-05T00:38:26.586Z,6.10
2019-04-05T00:41:15.370Z,6.10
2019-04-05T00:44:04.103Z,6.20
2019-04-05T00:46:52.756Z,6.20
2019-04-05T00:49:41.729Z,6.20
2019-04-05T00:52:30.546Z,6.20
2019-04-05T00:55:19.256Z,6.20
2019-04-05T00:58:07.978Z,6.10
2019-04-05T01:00:56.821Z,6.20
2019-04-05T01:03:45.467Z,6.10
2019-04-05T01:06:34.184Z,6.10
2019-04-05T01:09:22.923Z,6.10
2019-04-05T01:15:41.057Z,6.20
2019-04-05T01:18:28.577Z,6.10
2019-04-05T01:24:46.708Z,6.10
2019-04-05T01:27:35.667Z,6.00
2019-04-05T01:30:16.990Z,6.00
2019-04-05T01:32:58.558Z,5.90
2019-04-05T01:35:39.759Z,5.90
2019-04-05T01:38:21.389Z,5.80
2019-04-05T01:41:03.211Z,5.80
2019-04-05T01:43:44.775Z,5.80
2019-04-05T01:46:26.147Z,5.80
2019-04-05T01:49:09.917Z,5.80
2019-04-05T01:51:53.015Z,5.70
2019-04-05T01:54:33.800Z,5.80
2019-04-05T01:57:15.231Z,5.80
2019-04-05T01:59:58.935Z,5.80
2019-04-05T02:02:39.785Z,5.80
2019-04-05T02:05:21.017Z,5.80
2019-04-05T02:08:05.351Z,5.80
2019-04-05T02:10:45.186Z,5.90
2019-04-05T02:13:54.647Z,5.90
2019-04-05T02:16:46.319Z,5.90
2019-04-05T02:19:34.997Z,5.90
2019-04-05T02:22:23.741Z,5.90
2019-04-05T02:25:32.709Z,5.90
2019-04-05T02:28:21.405Z,5.90
2019-04-05T02:31:03.102Z,5.80
2019-04-05T02:33:44.714Z,5.90
2019-04-05T02:36:26.357Z,5.90
2019-04-05T02:39:07.816Z,5.90
2019-04-05T02:41:49.349Z,5.90
2019-04-05T02:44:31.019Z,6.00
2019-04-05T02:47:12.794Z,6.00
2019-04-05T02:49:54.347Z,6.00
2019-04-05T02:52:35.973Z,6.00
2019-04-05T02:55:17.570Z,5.90
2019-04-05T02:57:58.574Z,6.00
2019-04-05T03:00:40.240Z,5.90
2019-04-05T03:03:21.875Z,6.00
2019-04-05T03:06:03.181Z,6.00
2019-04-05T03:08:44.753Z,6.00
2019-04-05T03:11:25.723Z,6.00
2019-04-05T03:14:07.651Z,6.00
2019-04-05T03:16:49.082Z,6.00
2019-04-05T03:19:30.567Z,6.00
2019-04-05T03:22:12.272Z,6.00
2019-04-05T03:24:55.637Z,6.00
2019-04-05T03:27:36.398Z,6.00
2019-04-05T03:30:18.368Z,5.90
2019-04-05T03:33:00.165Z,5.90
2019-04-05T03:35:42.900Z,5.90
2019-04-05T03:38:24.156Z,5.90
2019-04-05T03:41:08.819Z,5.90
2019-04-05T03:46:56.902Z,5.90
2019-04-05T03:49:41.382Z,5.90
2019-04-05T03:52:43.915Z,6.00
2019-04-05T03:55:24.083Z,5.90
2019-04-05T03:58:13.584Z,6.00
2019-04-05T04:01:02.474Z,5.90
2019-04-05T04:06:54.856Z,6.00
2019-04-05T04:09:44.139Z,6.00
2019-04-05T04:12:33.106Z,6.10
2019-04-05T04:15:21.997Z,6.00
2019-04-05T04:18:11.009Z,6.00
2019-04-05T04:21:20.717Z,6.00
2019-04-05T04:24:29.709Z,6.00
2019-04-05T04:27:18.614Z,5.90
2019-04-05T04:30:09.291Z,6.00
2019-04-05T04:32:50.671Z,5.90
2019-04-05T04:35:32.461Z,5.90
2019-04-05T04:38:14.092Z,5.90
2019-04-05T04:40:55.769Z,5.80
2019-04-05T04:43:36.769Z,5.80
2019-04-05T04:46:18.456Z,5.80
2019-04-05T04:48:59.903Z,5.80
2019-04-05T04:54:40.314Z,5.90
2019-04-05T04:57:25.918Z,5.90
2019-04-05T05:00:07.306Z,5.90
2019-04-05T05:02:49.205Z,5.90
2019-04-05T05:05:30.334Z,5.80
2019-04-05T05:08:11.979Z,5.80
2019-04-05T05:10:54.410Z,5.80
2019-04-05T05:13:35.622Z,5.70
2019-04-05T05:16:17.169Z,5.70
2019-04-05T05:18:59.848Z,5.70
2019-04-05T05:21:42.240Z,5.70
2019-04-05T05:24:23.497Z,5.50
2019-04-05T05:27:05.206Z,5.60
2019-04-05T05:29:46.787Z,5.70
2019-04-05T05:32:28.736Z,5.70
2019-04-05T05:35:10.587Z,5.70
2019-04-05T05:37:54.195Z,5.70
2019-04-05T05:40:35.711Z,5.80
2019-04-05T05:46:03.809Z,5.80
2019-04-05T05:48:47.235Z,5.80
2019-04-05T05:51:31.277Z,5.70
2019-04-05T05:54:17.114Z,5.80
2019-04-05T05:56:58.445Z,5.90
2019-04-05T05:59:39.410Z,5.90
2019-04-05T06:02:22.310Z,6.00
2019-04-05T06:05:03.691Z,5.90
2019-04-05T06:10:31.233Z,5.80
2019-04-05T06:13:12.542Z,5.60
2019-04-05T06:15:54.803Z,5.70
2019-04-05T06:18:37.467Z,5.70
2019-04-05T06:21:38.605Z,5.70
2019-04-05T06:24:09.715Z,5.70
2019-04-05T06:26:51.205Z,5.80
2019-04-05T06:29:33.255Z,5.70
2019-04-05T06:35:10.062Z,5.90
2019-04-05T06:37:51.569Z,5.90
2019-04-05T06:40:40.608Z,6.00
2019-04-05T06:43:19.807Z,5.90
2019-04-05T06:46:01.259Z,6.00
2019-04-05T06:48:42.791Z,6.00
2019-04-05T06:54:10.645Z,6.00
2019-04-05T06:56:52.112Z,6.10
2019-04-05T06:59:33.818Z,5.90
2019-04-05T07:02:15.136Z,5.90
2019-04-05T07:04:56.927Z,6.00
2019-04-05T07:07:38.670Z,6.10
2019-04-05T07:10:24.855Z,6.20
2019-04-05T07:13:07.635Z,6.10
2019-04-05T07:15:48.802Z,6.30
2019-04-05T07:18:36.154Z,6.40
2019-04-05T07:21:24.769Z,6.50
2019-04-05T07:24:06.260Z,6.70
2019-04-05T07:26:48.935Z,6.80
2019-04-05T07:29:30.114Z,6.90
2019-04-05T07:32:11.595Z,6.80
2019-04-05T07:34:55.874Z,7.00
2019-04-05T07:37:41.648Z,7.00
2019-04-05T07:40:24.891Z,7.00
2019-04-05T07:43:06.249Z,7.00
2019-04-05T07:45:52.425Z,6.90
2019-04-05T07:48:44.237Z,6.80
2019-04-05T07:54:01.035Z,6.70
2019-04-05T07:56:46.393Z,6.70
2019-04-05T07:59:28.347Z,6.60
2019-04-05T08:02:09.891Z,6.60
2019-04-05T08:04:54.682Z,6.80
2019-04-05T08:07:37.007Z,6.90
2019-04-05T08:10:23.908Z,7.00
2019-04-05T08:13:01.737Z,7.10
2019-04-05T08:15:42.959Z,7.10
2019-04-05T08:18:25.109Z,7.00
2019-04-05T08:21:06.450Z,7.20
2019-04-05T08:23:53.691Z,7.30
2019-04-05T08:26:30.779Z,7.30
2019-04-05T08:29:15.335Z,7.40
2019-04-05T08:31:57.145Z,7.50
2019-04-05T08:34:38.714Z,7.20
2019-04-05T08:40:08.218Z,7.40
2019-04-05T08:45:45.910Z,7.40
2019-04-05T08:48:50.030Z,7.50
2019-04-05T08:51:25.492Z,7.50
2019-04-05T08:57:25.657Z,7.50
2019-04-05T09:00:16.338Z,7.60
2019-04-05T09:06:15.022Z,7.40
2019-04-05T09:09:24.400Z,7.60
2019-04-05T09:12:13.492Z,7.60
2019-04-05T09:15:26.770Z,7.50
2019-04-05T09:17:58.723Z,7.40
2019-04-05T09:20:47.590Z,7.50
2019-04-05T09:23:36.744Z,7.30
2019-04-05T09:26:28.014Z,7.40
2019-04-05T09:29:09.547Z,7.50
2019-04-05T09:31:50.958Z,7.50
2019-04-05T09:37:14.500Z,7.60
2019-04-05T09:42:44.885Z,7.60
2019-04-05T09:45:26.358Z,7.60
2019-04-05T09:48:07.940Z,7.70
2019-04-05T09:50:49.118Z,7.70
2019-04-05T09:53:55.147Z,7.60
2019-04-05T09:56:31.058Z,7.10
2019-04-05T09:59:07.475Z,7.10
2019-04-05T10:02:22.392Z,7.30
2019-04-05T10:07:54.976Z,7.50
2019-04-05T10:10:37.846Z,7.50
2019-04-05T10:13:26.749Z,7.60
2019-04-05T10:22:32.364Z,7.70
2019-04-05T10:28:17.299Z,8.00
2019-04-05T10:31:05.611Z,8.10
2019-04-05T10:36:42.380Z,8.10
2019-04-05T10:39:18.185Z,8.00
2019-04-05T10:42:37.165Z,7.90
2019-04-05T10:45:26.105Z,7.90
2019-04-05T10:48:14.975Z,8.20
2019-04-05T10:51:03.667Z,8.40
2019-04-05T10:53:45.243Z,8.10
2019-04-05T10:56:27.553Z,8.10
2019-04-05T10:59:15.559Z,7.90
2019-04-05T11:01:55.777Z,8.00
2019-04-05T11:04:36.727Z,8.20
2019-04-05T11:07:18.101Z,8.40
2019-04-05T11:09:59.859Z,8.10
2019-04-05T11:12:41.435Z,8.40
2019-04-05T11:15:22.738Z,8.50
2019-04-05T11:18:04.692Z,8.50
2019-04-05T11:20:49.846Z,8.60
2019-04-05T11:23:36.101Z,8.50
2019-04-05T11:26:18.357Z,8.30
2019-04-05T11:29:01.924Z,8.50
2019-04-05T11:31:55.937Z,8.60
2019-04-05T11:34:27.275Z,8.60
2019-04-05T11:37:11.504Z,8.70
2019-04-05T11:39:53.806Z,8.80
2019-04-05T11:42:37.122Z,8.30
2019-04-05T11:45:18.643Z,8.10
2019-04-05T11:48:06.387Z,8.00
2019-04-05T11:53:33.100Z,8.00
2019-04-05T11:59:02.044Z,8.20
2019-04-05T12:04:58.983Z,8.60
2019-04-05T12:07:40.060Z,8.60
2019-04-05T12:10:21.150Z,8.60
2019-04-05T12:13:20.636Z,8.90
2019-04-05T12:15:52.172Z,9.20
2019-04-05T12:18:34.876Z,9.10
2019-04-05T12:21:20.648Z,8.80
2019-04-05T12:24:02.556Z,8.90
2019-04-05T12:29:27.507Z,8.80
2019-04-05T12:32:09.561Z,8.80
2019-04-05T12:34:56.246Z,8.50
2019-04-05T12:40:26.122Z,8.40
2019-04-05T12:43:07.713Z,8.80
2019-04-05T12:45:49.275Z,8.70
2019-04-05T12:54:08.320Z,9.80
2019-04-05T12:56:49.613Z,9.90
2019-04-05T12:59:51.317Z,10.00
2019-04-05T13:02:33.137Z,10.50
2019-04-05T13:05:10.266Z,10.70
2019-04-05T13:07:53.417Z,11.00
2019-04-05T13:10:55.960Z,10.60
2019-04-05T13:13:27.491Z,10.50
2019-04-05T13:16:11.093Z,9.90
2019-04-05T13:18:54.162Z,10.10
2019-04-05T13:24:57.686Z,10.30
2019-04-05T13:27:46.957Z,10.70
2019-04-05T13:30:36.196Z,11.00
2019-04-05T13:33:47.123Z,11.00
2019-04-05T13:36:37.565Z,11.10
2019-04-05T13:39:36.262Z,11.10
2019-04-05T13:42:25.806Z,10.60
2019-04-05T13:48:31.508Z,11.00
2019-04-05T13:51:28.282Z,11.00
2019-04-05T13:54:14.632Z,10.70
2019-04-05T13:57:03.819Z,11.10
2019-04-05T13:59:55.359Z,10.80
2019-04-05T14:02:49.982Z,10.80
2019-04-05T14:05:38.000Z,11.10
2019-04-05T14:08:26.990Z,11.10
2019-04-05T14:14:12.660Z,10.50
2019-04-05T14:20:13.374Z,11.20
2019-04-05T14:22:58.233Z,11.00
2019-04-05T14:25:40.307Z,11.00
2019-04-05T14:28:22.239Z,11.60
2019-04-05T14:31:07.344Z,11.10
2019-04-05T14:33:49.267Z,11.10
2019-04-05T14:36:31.758Z,11.40
2019-04-05T14:39:13.300Z,12.00
2019-04-05T14:41:54.250Z,12.50
2019-04-05T14:44:36.097Z,12.50
2019-04-05T14:47:19.872Z,13.40
2019-04-05T14:50:01.150Z,12.90
2019-04-05T14:58:19.248Z,12.00
2019-04-05T15:01:01.815Z,12.00
2019-04-05T15:03:43.335Z,11.90
2019-04-05T15:06:26.809Z,11.50
2019-04-05T15:09:08.313Z,11.40
2019-04-05T15:11:49.910Z,11.20
2019-04-05T15:14:31.671Z,11.20
2019-04-05T15:17:13.390Z,11.40
2019-04-05T15:19:54.753Z,11.30
2019-04-05T15:22:36.151Z,11.30
2019-04-05T15:25:20.104Z,11.40
2019-04-05T15:28:01.735Z,11.40
2019-04-05T15:30:43.070Z,11.20
2019-04-05T15:33:27.445Z,11.10
2019-04-05T15:36:08.153Z,11.10
2019-04-05T15:38:49.127Z,11.60
2019-04-05T15:41:30.775Z,11.60
2019-04-05T15:44:12.483Z,11.10
2019-04-05T15:46:53.978Z,11.40
2019-04-05T15:49:35.411Z,11.30
2019-04-05T15:52:19.033Z,11.30
2019-04-05T15:55:01.721Z,11.40
2019-04-05T15:57:43.156Z,11.60
2019-04-05T16:00:26.713Z,11.20
2019-04-05T16:03:08.289Z,11.20
2019-04-05T16:05:52.353Z,11.20
2019-04-05T16:08:34.082Z,11.20
2019-04-05T16:11:15.610Z,11.30
2019-04-05T16:13:57.288Z,11.40
2019-04-05T16:16:43.418Z,11.40
2019-04-05T16:19:24.777Z,11.60
2019-04-05T16:25:14.370Z,11.20
2019-04-05T16:27:56.586Z,11.30
2019-04-05T16:30:39.999Z,11.20
2019-04-05T16:33:22.120Z,11.50
2019-04-05T16:36:04.074Z,11.50
2019-04-05T16:38:47.367Z,11.50
2019-04-05T16:41:29.078Z,11.40
2019-04-05T16:46:57.107Z,11.50
2019-04-05T16:49:40.839Z,11.60
2019-04-05T16:52:22.020Z,11.70
2019-04-05T16:55:08.561Z,11.60
2019-04-05T16:58:02.070Z,11.70
2019-04-05T17:00:51.150Z,11.70
2019-04-05T17:03:40.423Z,11.70
2019-04-05T17:06:29.494Z,11.70
2019-04-05T17:09:18.719Z,11.50
2019-04-05T17:12:00.587Z,11.30
2019-04-05T17:14:46.422Z,11.20
2019-04-05T17:17:21.016Z,11.10
2019-04-05T17:19:51.162Z,11.10
2019-04-05T17:22:20.908Z,11.20
2019-04-05T17:24:50.871Z,11.10
2019-04-05T17:27:39.672Z,10.90
2019-04-05T17:30:28.645Z,10.90
2019-04-05T17:33:17.464Z,10.80
2019-04-05T17:36:25.051Z,10.70
2019-04-05T17:39:13.732Z,10.60
2019-04-05T17:42:02.470Z,10.50
2019-04-05T17:44:51.412Z,10.40
2019-04-05T17:47:40.449Z,10.50
2019-04-05T17:54:01.744Z,10.50
2019-04-05T17:56:35.976Z,10.50
2019-04-05T17:59:39.219Z,10.50
2019-04-05T18:02:16.134Z,10.40
2019-04-05T18:05:05.243Z,10.50
2019-04-05T18:11:08.145Z,10.60
2019-04-05T18:13:59.642Z,10.50
2019-04-05T18:16:49.170Z,10.40
2019-04-05T18:19:38.551Z,10.30
2019-04-05T18:23:23.894Z,10.20
2019-04-05T18:25:18.247Z,10.00
2019-04-05T18:28:07.303Z,9.90
2019-04-05T18:34:10.800Z,9.70
2019-04-05T18:42:45.122Z,9.60
2019-04-05T18:48:44.823Z,9.60
2019-04-05T18:51:34.904Z,9.80
2019-04-05T18:54:43.059Z,9.90
2019-04-05T18:57:33.087Z,9.80
2019-04-05T19:00:22.525Z,9.80
2019-04-05T19:03:11.833Z,9.70
2019-04-05T19:06:01.291Z,9.60
2019-04-05T19:08:50.485Z,9.50
2019-04-05T19:11:33.087Z,9.50
2019-04-05T19:14:14.853Z,9.40
2019-04-05T19:16:59.101Z,9.40
2019-04-05T19:19:42.463Z,9.50
2019-04-05T19:22:30.383Z,9.50
2019-04-05T19:25:09.705Z,9.40
2019-04-05T19:49:47.544Z,9.20
2019-04-05T19:52:30.129Z,9.20
2019-04-05T19:55:14.161Z,9.10
2019-04-05T19:57:58.252Z,9.10
2019-04-05T20:00:40.338Z,9.10
2019-04-05T20:03:22.583Z,9.00
2019-04-05T20:08:50.169Z,8.90
2019-04-05T20:08:53.034Z,8.90
2019-04-05T20:11:37.191Z,8.90
2019-04-05T20:17:04.221Z,9.00
2019-04-05T20:19:46.270Z,8.90
2019-04-05T20:22:28.574Z,8.90
2019-04-05T20:25:13.088Z,8.80
2019-04-05T20:27:57.149Z,8.80
2019-04-05T20:33:28.440Z,8.80
2019-04-05T20:39:09.602Z,8.70
2019-04-05T20:41:55.861Z,8.70
2019-04-05T20:44:41.931Z,8.70
2019-04-05T20:47:52.765Z,8.60
2019-04-05T20:53:00.376Z,8.60
2019-04-05T20:55:41.865Z,8.60
2019-04-05T20:58:23.184Z,8.60
2019-04-05T21:01:05.375Z,8.60
2019-04-05T21:03:47.748Z,8.60
2019-04-05T21:06:31.316Z,8.70
2019-04-05T21:09:13.585Z,8.70
2019-04-05T21:11:55.237Z,8.80
2019-04-05T21:14:38.143Z,8.80
2019-04-05T21:17:22.298Z,8.80
2019-04-05T21:20:07.149Z,8.90
2019-04-05T21:22:48.399Z,8.80
2019-04-05T21:32:39.798Z,8.80
2019-04-05T21:35:28.690Z,8.90
2019-04-05T21:38:32.881Z,8.90
2019-04-05T21:41:13.195Z,8.90
2019-04-05T21:44:01.987Z,8.80
2019-04-05T21:46:58.939Z,8.80
2019-04-05T21:49:47.685Z,8.70
2019-04-05T21:52:29.263Z,8.70
2019-04-05T21:55:10.205Z,8.70
2019-04-05T21:57:51.781Z,8.70
2019-04-05T22:03:27.512Z,8.60
2019-04-05T22:06:08.838Z,8.50
2019-04-05T22:08:50.519Z,8.50
2019-04-05T22:11:32.093Z,8.50
2019-04-05T22:14:13.640Z,8.50
2019-04-05T22:16:55.415Z,8.40
2019-04-05T22:19:36.716Z,8.40
2019-04-05T22:22:18.414Z,8.40
2019-04-05T22:25:01.294Z,8.50
2019-04-05T22:27:42.529Z,8.50
2019-04-05T22:30:24.252Z,8.60
2019-04-05T22:33:06.010Z,8.60
2019-04-05T22:35:47.504Z,8.60
2019-04-05T22:38:28.724Z,8.60
2019-04-05T22:41:09.642Z,8.70
2019-04-05T22:43:52.446Z,8.60
2019-04-05T22:46:33.760Z,8.60
2019-04-05T22:49:15.040Z,8.50
2019-04-05T22:51:58.803Z,8.40
2019-04-05T22:54:40.021Z,8.30
2019-04-05T22:57:21.794Z,8.20
2019-04-05T23:00:03.037Z,8.10
2019-04-05T23:02:44.455Z,8.00
2019-04-05T23:05:25.638Z,7.90
2019-04-05T23:08:07.028Z,7.80
2019-04-05T23:10:48.468Z,7.70
2019-04-05T23:13:30.142Z,7.90
2019-04-05T23:16:11.464Z,7.80
2019-04-05T23:18:41.056Z,7.80
2019-04-05T23:21:10.567Z,7.80
2019-04-05T23:23:40.044Z,7.80
2019-04-05T23:26:09.475Z,7.70
2019-04-05T23:28:38.957Z,7.60
2019-04-05T23:31:08.519Z,7.50
2019-04-05T23:33:37.928Z,7.50
2019-04-05T23:36:07.415Z,7.40
2019-04-05T23:38:36.862Z,7.40
2019-04-05T23:41:06.313Z,7.30
2019-04-05T23:43:35.733Z,7.30
2019-04-05T23:46:05.196Z,7.30
2019-04-05T23:48:34.659Z,7.20
2019-04-05T23:51:04.071Z,7.20
2019-04-05T23:53:33.479Z,7.10
2019-04-05T23:56:03.008Z,7.00
2019-04-05T23:58:32.512Z,7.00
